Wayne, NJ

5:35 PM EDT on September 16, 2014 (GMT -0400)
Morristown Municipal | Change Station
CLOSE
Current Station
Airport
Location: Morristown,
Elevation: 187 ft
Nearby Weather Stations

Elev 187 ft 40.80 °N, 74.42 °W | Updated 35 minutes ago

Overcast
Overcast
68 °F
Feels Like 68 °F
N
6
Wind Variable Wind from North

Today
High -- | Low -- °F
--% Chance of Precip.
Yesterday
High -- | Low -- °F
Precip. -- in
6:38 AM 7:04 PM
Last Quarter, 42% visible
Pressure 29.99 in
Visibility 20.0 miles
Clouds Overcast 8000 ft
Dew Point 54 °F
Humidity 60%
Rainfall 0.00 in
Snow Depth Not available.
UV 1 out of 12
Pollen 3.80 out of 12
Air Quality Not available.
Flu Activity Not available.
METAR KMMU 162100Z 35005KT 20SM OVC080 20/12 A2999

More Conditions Fewer Conditions

Pressure 29.99 in
Visibility 20.0 miles
Clouds Overcast 8000 ft
Dew Point 54 °F
Humidity 60%
Rainfall 0.00 in
Snow Depth Not available.
UV 1 out of 12
Pollen 3.80 out of 12
Air Quality Not available.
Flu Activity Not available.
METAR KMMU 162100Z 35005KT 20SM OVC080 20/12 A2999

More Conditions Fewer Conditions

10-Day Weather Forecast

Almanac

Astronomy

Sep. 16, 2014 Rise Set
Actual Time 6:38 AM EDT 7:04 PM EDT
Civil Twilight 6:10 AM EDT 7:31 PM EDT
Nautical Twilight 5:38 AM EDT 8:04 PM EDT
Astronomical Twilight 5:05 AM EDT 8:37 PM EDT
Moon No Moon Rise 2:27 PM EDT
Length of Visible Light 13h 20m
Length of Day
12h 25m
Tomorrow will be 2m 42s shorter.
Last Quarter, 42% of the Moon is Illuminated
Today
Last Quarter
Sep 24
New
Oct 1
First Quarter
Oct 8
Full
Oct 15
Last Quarter

Today's Extremes

State Highs State Lows

Community

WunderPhotos

Upload Photos

1,753,895 photos uploaded!

Nearby

Snow Depth

Station Depth Elevation
No new snow has been reported.

Earthquake Activity

City Distance Mag. Time & Date
No recent earthquake activity has been reported nearby.
Minimum magnitude displayed is 2.5.

Coastal Water Temperatures

Place Temperature
Sandy Hook, NJ 70.0 °F
The Battery, NY 71.1 °F
Bergen Point West Reach, NJ 71.1 °F
Kings Point, NY 70.0 °F

Nearby Weather Stations